createdAt,value
2022-07-27T00:00:51.837Z,97739.69
2022-07-27T00:02:53.359Z,97738.03
2022-07-27T00:04:54.669Z,97737.19
2022-07-27T00:06:55.970Z,97733.72
2022-07-27T00:08:57.275Z,97736.34
2022-07-27T00:10:58.575Z,97739.75
2022-07-27T00:12:59.875Z,97741.47
2022-07-27T00:15:01.228Z,97738.91
2022-07-27T00:17:02.547Z,97740.63
2022-07-27T00:19:03.898Z,97744.88
2022-07-27T00:21:05.267Z,97750.03
2022-07-27T00:23:06.594Z,97738.06
2022-07-27T00:25:07.955Z,97740.69
2022-07-27T00:27:09.272Z,97740.63
2022-07-27T00:29:10.768Z,97742.34
2022-07-27T00:31:12.544Z,97744.09
2022-07-27T00:33:17.378Z,97743.25
2022-07-27T00:35:18.963Z,97746.66
2022-07-27T00:37:20.267Z,97751.78
2022-07-27T00:39:21.565Z,97747.53
2022-07-27T00:41:22.917Z,97744.09
2022-07-27T00:43:24.219Z,97745.81
2022-07-27T00:45:25.546Z,97748.38
2022-07-27T00:47:27.303Z,97750.09
2022-07-27T00:49:28.682Z,97746.69
2022-07-27T00:51:30.080Z,97741.56
2022-07-27T00:53:31.384Z,97744.13
2022-07-27T00:55:32.983Z,97750.13
2022-07-27T00:57:59.556Z,97746.69
2022-07-27T00:59:55.882Z,97748.41
2022-07-27T01:01:57.300Z,97753.53
2022-07-27T01:04:00.548Z,97752.69
2022-07-27T01:06:02.113Z,97760.38
2022-07-27T01:08:03.446Z,97769.72
2022-07-27T01:10:04.791Z,97762.91
2022-07-27T01:12:06.095Z,97768.88
2022-07-27T01:14:07.408Z,97773.16
2022-07-27T01:16:08.892Z,97766.38
2022-07-27T01:18:10.485Z,97769.78
2022-07-27T01:20:11.795Z,97771.50
2022-07-27T01:22:13.099Z,97766.38
2022-07-27T01:24:14.462Z,97765.53
2022-07-27T01:26:15.807Z,97767.25
2022-07-27T01:28:17.104Z,97767.25
2022-07-27T01:30:27.538Z,97767.25
2022-07-27T01:32:29.111Z,97770.66
2022-07-27T01:34:33.431Z,97780.06
2022-07-27T01:36:34.735Z,97776.66
2022-07-27T01:38:36.042Z,97776.66
2022-07-27T01:40:37.514Z,97751.97
2022-07-27T01:42:38.833Z,97741.72
2022-07-27T01:44:40.303Z,97747.69
2022-07-27T01:46:41.757Z,97742.56
2022-07-27T01:48:43.145Z,97738.25
2022-07-27T01:50:44.872Z,97739.16
2022-07-27T01:52:49.096Z,97738.31
2022-07-27T01:54:50.473Z,97748.56
2022-07-27T01:56:52.211Z,97740.94
2022-07-27T01:58:53.675Z,97758.81
2022-07-27T02:00:54.992Z,97766.47
2022-07-27T02:02:56.315Z,97779.28
2022-07-27T02:04:57.780Z,97777.59
2022-07-27T02:06:59.131Z,97775.88
2022-07-27T02:09:00.426Z,97781.00
2022-07-27T02:11:20.420Z,97773.31
2022-07-27T02:13:22.745Z,97774.22
2022-07-27T02:15:25.097Z,97781.06
2022-07-27T02:17:27.261Z,97773.38
2022-07-27T02:19:31.047Z,97770.81
2022-07-27T02:21:32.387Z,97778.50
2022-07-27T02:23:33.696Z,97775.94
2022-07-27T02:25:36.302Z,97782.78
2022-07-27T02:27:37.612Z,97781.06
2022-07-27T02:29:38.959Z,97779.38
2022-07-27T02:31:40.271Z,97779.38
2022-07-27T02:33:41.588Z,97775.97
2022-07-27T02:35:42.893Z,97775.97
2022-07-27T02:37:44.428Z,97777.69
2022-07-27T02:39:45.723Z,97776.81
2022-07-27T02:41:49.130Z,97783.69
2022-07-27T02:43:50.463Z,97772.56
2022-07-27T02:45:51.828Z,97766.63
2022-07-27T02:47:53.146Z,97759.81
2022-07-27T02:49:54.510Z,97776.88
2022-07-27T02:51:55.924Z,97775.13
2022-07-27T02:53:57.270Z,97776.03
2022-07-27T02:55:58.636Z,97781.16
2022-07-27T02:57:59.949Z,97783.69
2022-07-27T03:00:01.346Z,97775.19
2022-07-27T03:02:02.731Z,97770.06
2022-07-27T03:04:04.105Z,97771.78
2022-07-27T03:06:05.471Z,97769.22
2022-07-27T03:08:06.772Z,97773.50
2022-07-27T03:10:08.092Z,97769.22
2022-07-27T03:12:09.445Z,97764.16
2022-07-27T03:14:10.752Z,97776.06
2022-07-27T03:16:12.162Z,97770.94
2022-07-27T03:18:13.571Z,97771.84
2022-07-27T03:20:14.881Z,97776.13
2022-07-27T03:22:16.201Z,97776.97
2022-07-27T03:24:17.555Z,97776.13
2022-07-27T03:26:19.282Z,97771.84
2022-07-27T03:28:20.591Z,97781.25
2022-07-27T03:30:22.018Z,97781.25
2022-07-27T03:32:23.358Z,97779.53
2022-07-27T03:34:24.790Z,97780.38
2022-07-27T03:36:26.104Z,97786.34
2022-07-27T03:38:27.416Z,97780.38
2022-07-27T03:40:29.734Z,97775.28
2022-07-27T03:42:31.202Z,97776.13
2022-07-27T03:44:33.423Z,97779.56
2022-07-27T03:46:34.735Z,97773.63
2022-07-27T03:48:36.067Z,97779.56
2022-07-27T03:50:37.416Z,97774.44
2022-07-27T03:52:38.780Z,97776.19
2022-07-27T03:54:40.455Z,97778.75
2022-07-27T03:56:41.817Z,97781.28
2022-07-27T03:58:43.188Z,97780.44
2022-07-27T04:00:44.505Z,97783.84
2022-07-27T04:02:45.925Z,97781.28
2022-07-27T04:04:47.317Z,97786.44
2022-07-27T04:06:48.663Z,97777.94
2022-07-27T04:08:50.782Z,97777.06
2022-07-27T04:10:55.223Z,97781.31
2022-07-27T04:12:58.627Z,97781.31
2022-07-27T04:15:00.531Z,97788.16
2022-07-27T04:17:01.962Z,97783.88
2022-07-27T04:19:03.354Z,97786.44
2022-07-27T04:21:06.373Z,97790.72
2022-07-27T04:23:07.696Z,97790.72
2022-07-27T04:25:09.042Z,97806.91
2022-07-27T04:27:10.352Z,97805.22
2022-07-27T04:29:13.074Z,97800.13
2022-07-27T04:31:17.198Z,97805.22
2022-07-27T04:33:18.619Z,97797.56
2022-07-27T04:35:24.187Z,97805.22
2022-07-27T04:37:27.831Z,97793.34
2022-07-27T04:39:29.723Z,97788.22
2022-07-27T04:41:31.044Z,97795.00
2022-07-27T04:43:32.385Z,97795.91
2022-07-27T04:45:34.364Z,97794.19
2022-07-27T04:47:35.839Z,97796.69
2022-07-27T04:49:37.210Z,97807.75
2022-07-27T04:51:38.555Z,97805.19
2022-07-27T04:53:53.588Z,97810.31
2022-07-27T04:56:00.144Z,97808.63
2022-07-27T04:58:01.453Z,97811.19
2022-07-27T05:00:02.789Z,97813.81
2022-07-27T05:02:04.143Z,97813.81
2022-07-27T05:04:05.623Z,97823.19
2022-07-27T05:06:06.965Z,97829.16
2022-07-27T05:08:08.267Z,97826.59
2022-07-27T05:10:09.615Z,97830.03
2022-07-27T05:12:10.911Z,97832.59
2022-07-27T05:14:12.225Z,97829.19
2022-07-27T05:16:14.024Z,97839.44
2022-07-27T05:18:15.435Z,97836.06
2022-07-27T05:20:16.874Z,97841.97
2022-07-27T05:22:19.002Z,97837.72
2022-07-27T05:24:20.343Z,97834.38
2022-07-27T05:26:22.440Z,97836.94
2022-07-27T05:28:23.747Z,97844.59
2022-07-27T05:30:25.606Z,97845.47
2022-07-27T05:32:27.024Z,97842.91
2022-07-27T05:34:28.339Z,97856.53
2022-07-27T05:36:29.771Z,97848.03
2022-07-27T05:38:31.958Z,97859.94
2022-07-27T05:40:33.353Z,97851.44
2022-07-27T05:42:34.671Z,97864.22
2022-07-27T05:44:35.997Z,97858.25
2022-07-27T05:46:37.408Z,97857.47
2022-07-27T05:48:39.391Z,97857.47
2022-07-27T05:50:40.764Z,97860.00
2022-07-27T05:52:42.143Z,97860.00
2022-07-27T05:54:43.482Z,97864.28
2022-07-27T05:56:44.842Z,97860.03
2022-07-27T05:58:46.146Z,97859.16
2022-07-27T06:00:47.605Z,97862.56
2022-07-27T06:02:48.952Z,97860.03
2022-07-27T06:04:50.260Z,97875.38
2022-07-27T06:07:10.167Z,97874.53
2022-07-27T06:09:11.921Z,97881.34
2022-07-27T06:11:14.458Z,97881.34
2022-07-27T06:13:15.791Z,97889.03
2022-07-27T06:15:19.542Z,97885.63
2022-07-27T06:17:21.005Z,97895.00
2022-07-27T06:19:22.320Z,97898.41
2022-07-27T06:21:25.933Z,97895.88
2022-07-27T06:23:27.699Z,97893.31
2022-07-27T06:25:34.415Z,97895.00
2022-07-27T06:27:38.007Z,97895.00
2022-07-27T06:29:39.378Z,97893.31
2022-07-27T06:31:40.704Z,97901.84
2022-07-27T06:33:45.321Z,97904.41
2022-07-27T06:35:49.510Z,97904.41
2022-07-27T06:37:52.997Z,97912.13
2022-07-27T06:39:54.493Z,97922.31
2022-07-27T06:41:58.213Z,97913.81
2022-07-27T06:43:59.791Z,97912.97
2022-07-27T06:46:01.537Z,97907.03
2022-07-27T06:48:02.944Z,97905.31
2022-07-27T06:50:04.253Z,97907.03
2022-07-27T06:52:07.328Z,97906.19
2022-07-27T06:54:08.638Z,97910.41
2022-07-27T06:56:09.989Z,97904.47
2022-07-27T06:58:12.936Z,97904.53
2022-07-27T07:00:14.276Z,97905.34
2022-07-27T07:02:15.588Z,97908.75
2022-07-27T07:04:16.990Z,97917.25
2022-07-27T07:06:24.568Z,97913.84
2022-07-27T07:08:25.960Z,97909.59
2022-07-27T07:10:27.269Z,97913.84
2022-07-27T07:12:28.741Z,97901.06
2022-07-27T07:14:30.103Z,97907.88
2022-07-27T07:16:31.599Z,97907.88
2022-07-27T07:18:32.979Z,97914.69
2022-07-27T07:20:34.328Z,97913.81
2022-07-27T07:22:35.746Z,97918.09
2022-07-27T07:24:37.120Z,97919.81
2022-07-27T07:26:39.555Z,97914.69
2022-07-27T07:28:40.880Z,97918.09
2022-07-27T07:30:42.232Z,97908.72
2022-07-27T07:32:43.621Z,97906.97
2022-07-27T07:34:44.928Z,97906.97
2022-07-27T07:36:47.817Z,97906.09
2022-07-27T07:38:49.181Z,97905.22
2022-07-27T07:40:50.519Z,97902.66
2022-07-27T07:42:52.533Z,97908.56
2022-07-27T07:44:53.855Z,97911.13
2022-07-27T07:46:55.377Z,97903.38
2022-07-27T07:48:56.829Z,97906.78
2022-07-27T07:50:58.176Z,97909.34
2022-07-27T07:52:59.494Z,97908.56
2022-07-27T07:55:00.808Z,97917.03
2022-07-27T07:57:02.158Z,97911.03
2022-07-27T07:59:05.044Z,97917.81
2022-07-27T08:01:06.395Z,97917.81
2022-07-27T08:03:07.798Z,97917.81
2022-07-27T08:05:09.289Z,97912.75
2022-07-27T08:07:10.609Z,97912.69
2022-07-27T08:09:14.198Z,97905.88
2022-07-27T08:11:15.783Z,97908.47
2022-07-27T08:13:21.899Z,97912.69
2022-07-27T08:15:30.090Z,97911.88
2022-07-27T08:17:37.379Z,97909.34
2022-07-27T08:19:40.416Z,97923.00
2022-07-27T08:21:41.879Z,97923.84
2022-07-27T08:23:43.176Z,97917.88
2022-07-27T08:25:44.526Z,97916.16
2022-07-27T08:27:47.569Z,97919.59
2022-07-27T08:29:52.044Z,97924.72
2022-07-27T08:31:53.641Z,97926.41
2022-07-27T08:33:55.043Z,97926.41
2022-07-27T08:35:57.469Z,97928.97
2022-07-27T08:37:58.873Z,97931.59
2022-07-27T08:42:21.475Z,97941.00
2022-07-27T08:44:22.788Z,97938.44
2022-07-27T08:46:24.152Z,97936.78
2022-07-27T08:48:25.652Z,97934.22
2022-07-27T08:50:34.919Z,97931.66
2022-07-27T08:52:36.419Z,97932.53
2022-07-27T08:54:37.763Z,97937.63
2022-07-27T08:56:39.101Z,97935.09
2022-07-27T08:58:40.416Z,97932.53
2022-07-27T09:00:41.755Z,97929.13
2022-07-27T09:02:43.110Z,97932.53
2022-07-27T09:04:44.484Z,97930.00
2022-07-27T09:06:53.271Z,97935.94
2022-07-27T09:08:55.604Z,97928.28
2022-07-27T09:10:58.042Z,97930.00
2022-07-27T09:12:59.392Z,97928.34
2022-07-27T09:15:00.707Z,97925.78
2022-07-27T09:18:12.216Z,97933.44
2022-07-27T09:19:23.352Z,97934.28
2022-07-27T09:21:24.660Z,97933.44
2022-07-27T09:23:26.028Z,97924.94
2022-07-27T09:26:00.257Z,97925.00
2022-07-27T09:27:50.337Z,97921.53
2022-07-27T09:29:51.643Z,97918.97
2022-07-27T09:31:52.986Z,97922.38
2022-07-27T09:33:54.288Z,97925.00
2022-07-27T09:35:55.670Z,97917.31
2022-07-27T09:37:57.253Z,97915.56
2022-07-27T09:39:58.559Z,97914.69
2022-07-27T09:42:01.241Z,97776.47
2022-07-27T09:44:30.558Z,97920.66
2022-07-27T09:46:24.793Z,97923.22
2022-07-27T09:48:27.975Z,97923.25
2022-07-27T09:50:35.236Z,97925.81
2022-07-27T09:52:39.130Z,97924.16
2022-07-27T09:54:40.563Z,97925.00
2022-07-27T09:56:41.870Z,97926.69
2022-07-27T09:58:43.276Z,97927.53
2022-07-27T10:00:44.602Z,97925.81
2022-07-27T10:02:45.917Z,97931.81
2022-07-27T10:04:47.333Z,97934.38
2022-07-27T10:07:02.131Z,97930.09
2022-07-27T10:09:03.976Z,97939.50
2022-07-27T10:11:05.352Z,97930.09
2022-07-27T10:13:08.765Z,97933.53
2022-07-27T10:15:10.092Z,97936.94
2022-07-27T10:17:13.087Z,97940.34
2022-07-27T10:19:14.736Z,97948.00
2022-07-27T10:21:16.104Z,97938.59
2022-07-27T10:23:17.695Z,97937.78
2022-07-27T10:25:19.047Z,97943.72
2022-07-27T10:27:20.784Z,97947.97
2022-07-27T10:29:22.081Z,97944.56
2022-07-27T10:31:23.591Z,97950.50
2022-07-27T10:33:24.921Z,97943.69
2022-07-27T10:35:26.237Z,97936.84
2022-07-27T10:37:27.555Z,97938.56
2022-07-27T10:39:30.228Z,97943.69
2022-07-27T10:41:31.544Z,97950.47
2022-07-27T10:43:33.217Z,97953.00
2022-07-27T10:45:55.194Z,97954.75
2022-07-27T10:47:55.831Z,97947.91
2022-07-27T10:49:57.219Z,97947.91
2022-07-27T10:51:59.130Z,97961.53
2022-07-27T10:54:16.026Z,97965.81
2022-07-27T10:56:17.353Z,97970.06
2022-07-27T10:58:19.014Z,97967.50
2022-07-27T11:00:20.374Z,97970.94
2022-07-27T11:02:21.849Z,97973.47
2022-07-27T11:04:23.164Z,97976.94
2022-07-27T11:07:14.998Z,97964.16
2022-07-27T11:08:47.796Z,97970.97
2022-07-27T11:10:51.091Z,97966.72
2022-07-27T11:12:52.394Z,97968.47
2022-07-27T11:14:53.716Z,97968.47
2022-07-27T11:16:59.080Z,97973.59
2022-07-27T11:19:09.298Z,97969.34
2022-07-27T11:21:10.657Z,97969.34
2022-07-27T11:23:50.395Z,97965.09
2022-07-27T11:25:33.246Z,97968.50
2022-07-27T11:27:34.557Z,97976.19
2022-07-27T11:29:43.719Z,97993.25
2022-07-27T11:31:55.406Z,97971.97
2022-07-27T11:33:58.287Z,97977.09
2022-07-27T11:35:59.609Z,97985.63
2022-07-27T11:38:01.044Z,97981.38
2022-07-27T11:40:13.969Z,97983.94
2022-07-27T11:42:24.176Z,97978.88
2022-07-27T11:44:25.691Z,97981.44
2022-07-27T11:46:27.667Z,97976.31
2022-07-27T11:48:43.811Z,97974.63
2022-07-27T11:50:50.368Z,97970.34
2022-07-27T11:52:51.707Z,97968.66
2022-07-27T11:54:53.044Z,97961.84
2022-07-27T11:56:54.400Z,97959.28
2022-07-27T11:58:59.590Z,97958.44
2022-07-27T12:01:02.671Z,97954.16
2022-07-27T12:03:04.067Z,97949.88
2022-07-27T12:05:06.573Z,97949.03
2022-07-27T12:07:08.063Z,97947.34
2022-07-27T12:09:09.764Z,97950.72
2022-07-27T12:11:11.475Z,97949.88
2022-07-27T12:13:12.840Z,97960.13
2022-07-27T12:15:43.006Z,97949.09
2022-07-27T12:17:35.479Z,97950.75
2022-07-27T12:19:36.790Z,97816.84
2022-07-27T12:21:38.101Z,97947.38
2022-07-27T12:23:39.407Z,97944.81
2022-07-27T12:25:41.339Z,97947.38
2022-07-27T12:27:42.654Z,97943.97
2022-07-27T12:29:43.957Z,97944.84
2022-07-27T12:31:45.309Z,97949.94
2022-07-27T12:33:48.186Z,97942.28
2022-07-27T12:35:49.725Z,97938.81
2022-07-27T12:37:51.060Z,97936.25
2022-07-27T12:39:52.359Z,97932.81
2022-07-27T12:41:53.704Z,97787.66
2022-07-27T12:43:55.011Z,97938.78
2022-07-27T12:45:56.372Z,97937.94
2022-07-27T12:47:57.741Z,97933.66
2022-07-27T12:49:59.057Z,97936.16
2022-07-27T12:52:00.367Z,97932.78
2022-07-27T12:54:01.687Z,97938.72
2022-07-27T12:56:03.612Z,97934.47
2022-07-27T12:58:05.004Z,97931.94
2022-07-27T13:00:06.347Z,97927.66
2022-07-27T13:02:07.694Z,97921.66
2022-07-27T13:04:09.074Z,97920.81
2022-07-27T13:06:12.979Z,97922.47
2022-07-27T13:08:16.574Z,97912.22
2022-07-27T13:10:18.464Z,97919.03
2022-07-27T13:12:19.768Z,97913.06
2022-07-27T13:14:21.115Z,97915.63
2022-07-27T13:16:22.534Z,97913.84
2022-07-27T13:18:24.269Z,97915.47
2022-07-27T13:20:26.343Z,97912.09
2022-07-27T13:22:27.723Z,97907.81
2022-07-27T13:24:29.079Z,97904.41
2022-07-27T13:26:30.416Z,97909.50
2022-07-27T13:28:31.785Z,97908.66
2022-07-27T13:30:33.120Z,97910.38
2022-07-27T13:32:34.480Z,97908.66
2022-07-27T13:34:35.977Z,97904.38
2022-07-27T13:36:40.803Z,97903.44
2022-07-27T13:38:42.228Z,97900.81
2022-07-27T13:40:43.535Z,97902.47
2022-07-27T13:42:44.926Z,97894.78
2022-07-27T13:45:11.204Z,97898.19
2022-07-27T13:47:07.744Z,97897.25
2022-07-27T13:49:09.216Z,97894.69
2022-07-27T13:51:10.634Z,97898.94
2022-07-27T13:53:15.132Z,97894.69
2022-07-27T13:55:17.043Z,97886.16
2022-07-27T13:57:18.360Z,97892.97
2022-07-27T13:59:20.176Z,97894.69
2022-07-27T14:01:21.584Z,97888.66
2022-07-27T14:03:23.097Z,97885.28
2022-07-27T14:05:26.945Z,97889.50
2022-07-27T14:07:29.956Z,97882.66
2022-07-27T14:09:49.735Z,97885.22
2022-07-27T14:11:53.143Z,97878.38
2022-07-27T14:13:54.641Z,97880.94
2022-07-27T14:15:56.324Z,97874.94
2022-07-27T14:17:57.738Z,97876.69
2022-07-27T14:19:59.050Z,97877.47
2022-07-27T14:22:00.390Z,97876.69
2022-07-27T14:24:01.697Z,97880.03
2022-07-27T14:26:03.105Z,97873.22
2022-07-27T14:28:04.460Z,97878.31
2022-07-27T14:30:06.674Z,97878.38
2022-07-27T14:32:08.419Z,97889.50
2022-07-27T14:34:10.604Z,97878.47
2022-07-27T14:36:11.902Z,97882.75
2022-07-27T14:38:13.382Z,97882.81
2022-07-27T14:40:26.043Z,97882.81
2022-07-27T14:42:27.400Z,97883.66
2022-07-27T14:44:28.706Z,97879.31
2022-07-27T14:46:30.131Z,97875.84
2022-07-27T14:49:03.319Z,97879.22
2022-07-27T14:50:52.872Z,97876.69
2022-07-27T14:52:54.189Z,97880.97
2022-07-27T14:54:59.611Z,97881.81
2022-07-27T14:57:00.935Z,97880.16
2022-07-27T14:59:02.242Z,97879.31
2022-07-27T15:01:03.616Z,97879.31
2022-07-27T15:03:05.584Z,97884.38
2022-07-27T15:05:06.912Z,97881.81
2022-07-27T15:07:08.257Z,97877.53
2022-07-27T15:09:09.651Z,97881.81
2022-07-27T15:11:11.091Z,97883.59
2022-07-27T15:13:12.476Z,97875.91
2022-07-27T15:15:13.775Z,97878.53
2022-07-27T15:17:15.118Z,97873.34
2022-07-27T15:19:16.870Z,97869.94
2022-07-27T15:21:18.389Z,97869.94
2022-07-27T15:23:19.779Z,97869.09
2022-07-27T15:25:21.204Z,97868.25
2022-07-27T15:27:22.562Z,97872.50
2022-07-27T15:29:23.859Z,97870.81
2022-07-27T15:31:25.230Z,97869.94
2022-07-27T15:33:26.847Z,97871.66
2022-07-27T15:35:28.217Z,97874.22
2022-07-27T15:37:29.556Z,97866.56
2022-07-27T15:39:30.855Z,97872.50
2022-07-27T15:41:32.694Z,97864.84
2022-07-27T15:43:34.552Z,97862.34
2022-07-27T15:45:38.566Z,97869.13
2022-07-27T15:47:40.153Z,97866.56
2022-07-27T15:49:42.416Z,97868.31
2022-07-27T15:51:43.791Z,97856.31
2022-07-27T15:53:45.147Z,97870.88
2022-07-27T15:55:46.526Z,97856.38
2022-07-27T15:57:47.824Z,97870.88
2022-07-27T15:59:49.159Z,97870.88
2022-07-27T16:01:50.458Z,97869.16
2022-07-27T16:03:55.347Z,97870.03
2022-07-27T16:05:57.495Z,97863.28
2022-07-27T16:07:58.833Z,97863.28
2022-07-27T16:10:00.256Z,97870.94
2022-07-27T16:12:01.565Z,97866.69
2022-07-27T16:14:02.919Z,97870.09
2022-07-27T16:16:24.968Z,97870.97
2022-07-27T16:18:26.488Z,97870.13
2022-07-27T16:20:27.869Z,97867.56
2022-07-27T16:22:30.287Z,97861.63
2022-07-27T16:24:36.444Z,97854.84
2022-07-27T16:26:39.420Z,97853.16
2022-07-27T16:28:40.850Z,97863.38
2022-07-27T16:30:42.201Z,97852.34
2022-07-27T16:32:43.524Z,97864.22
2022-07-27T16:34:46.179Z,97854.06
2022-07-27T16:36:49.019Z,97862.59
2022-07-27T16:38:51.879Z,97865.16
2022-07-27T16:40:53.251Z,97855.78
2022-07-27T16:42:56.551Z,97857.47
2022-07-27T16:44:57.856Z,97853.22
2022-07-27T16:46:59.238Z,97854.13
2022-07-27T16:49:00.626Z,97862.66
2022-07-27T16:51:02.054Z,97866.94
2022-07-27T16:53:03.354Z,97857.56
2022-07-27T16:55:04.702Z,97860.13
2022-07-27T16:57:06.134Z,97865.25
2022-07-27T16:59:07.485Z,97861.03
2022-07-27T17:01:08.868Z,97854.16
2022-07-27T17:03:10.164Z,97862.75
2022-07-27T17:05:11.624Z,97863.63
2022-07-27T17:07:13.031Z,97865.31
2022-07-27T17:09:14.834Z,97856.78
2022-07-27T17:11:20.965Z,97861.06
2022-07-27T17:13:24.033Z,97867.06
2022-07-27T17:15:35.444Z,97864.50
2022-07-27T17:17:36.878Z,97858.56
2022-07-27T17:19:38.188Z,97857.72
2022-07-27T17:21:39.497Z,97861.97
2022-07-27T17:23:40.912Z,97861.97
2022-07-27T17:25:42.227Z,97861.13
2022-07-27T17:27:44.334Z,97866.25
2022-07-27T17:29:45.672Z,97860.28
2022-07-27T17:31:47.548Z,97858.63
2022-07-27T17:33:48.924Z,97863.75
2022-07-27T17:35:50.219Z,97870.59
2022-07-27T17:38:07.446Z,97868.88
2022-07-27T17:40:08.982Z,97868.88
2022-07-27T17:42:10.291Z,97874.84
2022-07-27T17:44:11.999Z,97874.84
2022-07-27T17:46:13.353Z,97865.53
2022-07-27T17:48:14.750Z,97862.13
2022-07-27T17:50:16.065Z,97868.13
2022-07-27T17:52:17.366Z,97870.66
2022-07-27T17:54:18.671Z,97868.97
2022-07-27T17:56:20.024Z,97868.13
2022-07-27T17:58:22.710Z,97871.56
2022-07-27T18:00:25.844Z,97866.47
2022-07-27T18:02:27.425Z,97871.56
2022-07-27T18:04:29.533Z,97875.00
2022-07-27T18:06:30.916Z,97878.41
2022-07-27T18:08:32.234Z,97877.56
2022-07-27T18:10:38.263Z,97874.22
2022-07-27T18:12:39.945Z,97875.88
2022-07-27T18:15:01.211Z,97872.47
2022-07-27T18:17:02.571Z,97870.81
2022-07-27T18:19:05.077Z,97862.28
2022-07-27T18:21:06.487Z,97868.25
2022-07-27T18:23:07.803Z,97864.84
2022-07-27T18:25:09.187Z,97874.25
2022-07-27T18:27:10.495Z,97877.66
2022-07-27T18:29:12.098Z,97875.16
2022-07-27T18:31:15.908Z,97872.59
2022-07-27T18:33:17.240Z,97879.41
2022-07-27T18:35:18.571Z,97881.13
2022-07-27T18:37:19.907Z,97881.13
2022-07-27T18:39:23.835Z,97879.44
2022-07-27T18:41:35.588Z,97879.44
2022-07-27T18:43:37.104Z,97884.56
2022-07-27T18:45:38.471Z,97893.97
2022-07-27T18:47:39.823Z,97882.06
2022-07-27T18:49:41.133Z,97881.22
2022-07-27T18:51:42.451Z,97894.00
2022-07-27T18:53:47.452Z,97892.31
2022-07-27T18:55:52.763Z,97895.72
2022-07-27T18:57:57.999Z,97902.53
2022-07-27T18:59:59.400Z,97916.16
2022-07-27T19:02:00.829Z,97913.66
2022-07-27T19:04:02.697Z,97917.94
2022-07-27T19:06:04.734Z,97920.50
2022-07-27T19:08:11.293Z,97923.06
2022-07-27T19:10:15.079Z,97929.88
2022-07-27T19:12:16.461Z,97926.47
2022-07-27T19:14:22.754Z,97931.59
2022-07-27T19:16:24.435Z,97933.34
2022-07-27T19:18:26.410Z,97924.03
2022-07-27T19:20:28.132Z,97933.38
2022-07-27T19:22:29.507Z,97938.44
2022-07-27T19:24:30.866Z,97931.72
2022-07-27T19:26:32.644Z,97934.25
2022-07-27T19:28:33.973Z,97936.81
2022-07-27T19:30:35.403Z,97949.59
2022-07-27T19:32:36.840Z,97951.28
2022-07-27T19:34:38.225Z,97947.88
2022-07-27T19:36:39.599Z,97955.56
2022-07-27T19:38:40.933Z,97955.56
2022-07-27T19:40:45.430Z,97958.97
2022-07-27T19:42:47.292Z,97962.44
2022-07-27T19:44:48.788Z,97968.38
2022-07-27T19:46:50.109Z,97957.31
2022-07-27T19:48:51.790Z,97965.03
2022-07-27T19:50:53.156Z,97967.56
2022-07-27T19:52:54.513Z,97965.06
2022-07-27T19:54:55.881Z,97974.41
2022-07-27T19:56:57.189Z,97978.72
2022-07-27T19:58:58.498Z,97985.56
2022-07-27T20:00:59.841Z,97984.75
2022-07-27T20:03:01.256Z,97987.28
2022-07-27T20:05:02.644Z,97983.91
2022-07-27T20:07:08.848Z,97983.03
2022-07-27T20:09:10.365Z,97987.31
2022-07-27T20:11:11.940Z,97985.59
2022-07-27T20:13:13.259Z,97983.06
2022-07-27T20:15:14.631Z,97988.16
2022-07-27T20:17:15.935Z,97986.47
2022-07-27T20:19:17.660Z,97995.00
2022-07-27T20:21:23.157Z,97996.69
2022-07-27T20:23:25.790Z,97989.94
2022-07-27T20:25:27.112Z,97984.81
2022-07-27T20:27:29.623Z,97991.63
2022-07-27T20:29:31.689Z,97990.78
2022-07-27T20:31:34.661Z,97996.75
2022-07-27T20:33:35.991Z,98001.88
2022-07-27T20:35:37.757Z,98005.28
2022-07-27T20:37:39.407Z,98009.53
2022-07-27T20:39:40.723Z,98007.00
2022-07-27T20:41:42.023Z,98008.75
2022-07-27T20:43:43.397Z,98015.56
2022-07-27T20:45:44.749Z,98013.00
2022-07-27T20:47:46.082Z,98009.59
2022-07-27T20:49:47.424Z,98016.41
2022-07-27T20:51:48.896Z,98018.13
2022-07-27T20:53:50.195Z,98015.59
2022-07-27T20:55:51.516Z,98017.28
2022-07-27T20:57:52.875Z,98013.88
2022-07-27T20:59:55.859Z,98016.44
2022-07-27T21:01:57.188Z,98019.88
2022-07-27T21:03:58.574Z,97853.19
2022-07-27T21:05:59.874Z,98021.59
2022-07-27T21:08:01.259Z,98028.44
2022-07-27T21:10:02.740Z,98017.34
2022-07-27T21:12:04.093Z,98025.03
2022-07-27T21:14:05.435Z,98025.88
2022-07-27T21:16:06.849Z,98023.31
2022-07-27T21:18:08.340Z,98017.41
2022-07-27T21:20:09.683Z,98019.97
2022-07-27T21:22:11.028Z,98021.66
2022-07-27T21:24:15.817Z,98016.56
2022-07-27T21:26:18.947Z,98016.56
2022-07-27T21:28:24.875Z,98021.66
2022-07-27T21:30:26.403Z,98016.59
2022-07-27T21:32:27.784Z,98019.13
2022-07-27T21:34:29.119Z,98018.31
2022-07-27T21:36:30.470Z,98024.25
2022-07-27T21:38:31.778Z,98030.25
2022-07-27T21:40:33.112Z,98028.56
2022-07-27T21:42:34.515Z,98038.78
2022-07-27T21:44:37.414Z,98040.50
2022-07-27T21:46:38.754Z,98040.50
2022-07-27T21:48:40.111Z,98048.19
2022-07-27T21:50:41.444Z,98044.81
2022-07-27T21:52:42.798Z,98051.63
2022-07-27T21:54:44.323Z,98053.28
2022-07-27T21:56:50.384Z,98049.94
2022-07-27T21:58:52.015Z,98053.34
2022-07-27T22:00:53.915Z,98044.81
2022-07-27T22:02:55.280Z,98054.19
2022-07-27T22:04:56.681Z,98057.59
2022-07-27T22:06:58.003Z,98060.22
2022-07-27T22:08:59.419Z,98061.03
2022-07-27T22:11:00.764Z,98056.81
2022-07-27T22:13:02.084Z,98056.81
2022-07-27T22:15:03.435Z,98059.38
2022-07-27T22:17:04.935Z,98062.78
2022-07-27T22:19:06.242Z,98064.50
2022-07-27T22:21:07.605Z,98062.78
2022-07-27T22:23:09.223Z,98062.78
2022-07-27T22:25:10.679Z,98068.78
2022-07-27T22:27:12.028Z,98058.56
2022-07-27T22:29:13.410Z,98051.78
2022-07-27T22:31:21.352Z,98059.44
2022-07-27T22:33:24.238Z,98057.75
2022-07-27T22:35:25.626Z,98057.75
2022-07-27T22:37:26.947Z,98057.75
2022-07-27T22:39:28.261Z,98062.84
2022-07-27T22:41:29.582Z,98056.94
2022-07-27T22:43:30.899Z,98059.50
2022-07-27T22:45:32.328Z,98064.59
2022-07-27T22:47:33.663Z,98067.16
2022-07-27T22:49:35.193Z,98073.13
2022-07-27T22:51:49.801Z,98069.72
2022-07-27T22:53:54.444Z,98064.63
2022-07-27T22:55:56.303Z,98066.31
2022-07-27T22:57:57.915Z,98066.31
2022-07-27T22:59:59.396Z,98065.47
2022-07-27T23:02:03.526Z,98080.88
2022-07-27T23:04:04.929Z,98074.03
2022-07-27T23:06:06.250Z,98068.94
2022-07-27T23:08:07.579Z,98068.94
2022-07-27T23:10:30.671Z,98072.34
2022-07-27T23:12:32.484Z,98072.34
2022-07-27T23:14:33.877Z,98074.06
2022-07-27T23:16:35.254Z,98080.03
2022-07-27T23:18:36.690Z,98079.19
2022-07-27T23:20:37.985Z,98082.63
2022-07-27T23:22:39.288Z,98092.00
2022-07-27T23:24:41.082Z,98085.19
2022-07-27T23:26:43.026Z,98074.16
2022-07-27T23:28:44.344Z,98081.78
2022-07-27T23:30:45.685Z,98079.28
2022-07-27T23:32:46.983Z,98070.75
2022-07-27T23:34:48.279Z,98079.28
2022-07-27T23:36:49.582Z,98072.41
2022-07-27T23:38:50.935Z,98076.72
2022-07-27T23:40:53.351Z,98077.59
2022-07-27T23:42:54.736Z,98074.19
2022-07-27T23:44:56.084Z,98067.38
2022-07-27T23:46:57.447Z,98077.59
2022-07-27T23:48:58.915Z,98078.44
2022-07-27T23:51:00.299Z,98079.34
2022-07-27T23:53:01.666Z,98075.94
2022-07-27T23:55:02.993Z,98072.53
2022-07-27T23:57:04.326Z,98068.28
2022-07-27T23:59:05.671Z,98064.91
